createdAt,value
2022-08-23T00:02:35.483Z,92.69
2022-08-23T00:07:43.020Z,93.08
2022-08-23T00:12:46.267Z,93.15
2022-08-23T00:17:48.214Z,95.97
2022-08-23T00:22:50.270Z,97.16
2022-08-23T00:27:52.562Z,94.83
2022-08-23T00:32:57.877Z,93.47
2022-08-23T00:38:33.231Z,94.46
2022-08-23T00:43:34.640Z,97.66
2022-08-23T00:48:38.354Z,95.58
2022-08-23T00:53:50.571Z,96.47
2022-08-23T00:58:52.705Z,97.37
2022-08-23T01:04:05.114Z,99.46
2022-08-23T01:09:11.187Z,100.00
2022-08-23T01:14:22.112Z,100.00
2022-08-23T01:19:35.739Z,100.00
2022-08-23T01:25:07.814Z,100.00
2022-08-23T01:30:01.943Z,100.00
2022-08-23T01:35:04.436Z,100.00
2022-08-23T01:40:06.880Z,100.00
2022-08-23T01:45:14.174Z,100.00
2022-08-23T01:50:16.482Z,100.00
2022-08-23T01:55:18.755Z,100.00
2022-08-23T02:00:27.222Z,100.00
2022-08-23T02:05:31.408Z,100.00
2022-08-23T02:10:33.111Z,100.00
2022-08-23T02:15:34.760Z,100.00
2022-08-23T02:20:36.970Z,100.00
2022-08-23T02:25:39.355Z,100.00
2022-08-23T02:30:41.397Z,100.00
2022-08-23T02:35:45.691Z,100.00
2022-08-23T02:40:47.918Z,100.00
2022-08-23T02:45:55.420Z,100.00
2022-08-23T02:51:03.854Z,100.00
2022-08-23T02:56:06.351Z,100.00
2022-08-23T03:01:23.186Z,100.00
2022-08-23T03:06:26.817Z,100.00
2022-08-23T03:11:28.822Z,100.00
2022-08-23T03:16:30.890Z,100.00
2022-08-23T03:21:32.606Z,100.00
2022-08-23T03:26:35.004Z,100.00
2022-08-23T03:31:37.139Z,100.00
2022-08-23T03:36:46.388Z,100.00
2022-08-23T03:41:48.902Z,100.00
2022-08-23T03:46:50.576Z,100.00
2022-08-23T03:51:52.213Z,100.00
2022-08-23T03:57:07.454Z,100.00
2022-08-23T04:02:10.534Z,100.00
2022-08-23T04:07:12.382Z,100.00
2022-08-23T04:12:17.538Z,100.00
2022-08-23T04:17:20.865Z,100.00
2022-08-23T04:22:23.694Z,100.00
2022-08-23T04:27:25.860Z,100.00
2022-08-23T04:32:28.686Z,100.00
2022-08-23T04:37:32.932Z,100.00
2022-08-23T04:42:35.426Z,100.00
2022-08-23T04:47:37.263Z,100.00
2022-08-23T04:52:39.272Z,100.00
2022-08-23T04:57:41.260Z,100.00
2022-08-23T05:02:44.269Z,100.00
2022-08-23T05:07:45.914Z,100.00
2022-08-23T05:12:48.485Z,100.00
2022-08-23T05:17:52.329Z,100.00
2022-08-23T05:22:54.651Z,100.00
2022-08-23T05:28:07.813Z,95.59
2022-08-23T05:33:09.449Z,91.72
2022-08-23T05:38:11.511Z,90.13
2022-08-23T05:43:14.143Z,88.29
2022-08-23T05:48:15.817Z,84.14
2022-08-23T05:53:23.923Z,82.17
2022-08-23T05:58:26.874Z,79.21
2022-08-23T06:03:28.447Z,79.77
2022-08-23T06:08:31.127Z,76.93
2022-08-23T06:13:34.557Z,78.20
2022-08-23T06:18:36.519Z,77.28
2022-08-23T06:23:57.825Z,75.44
2022-08-23T06:29:05.663Z,70.46
2022-08-23T06:34:10.062Z,70.34
2022-08-23T06:39:36.773Z,69.53
2022-08-23T06:44:57.964Z,66.80
2022-08-23T06:50:11.900Z,62.65
2022-08-23T06:55:32.036Z,60.51
2022-08-23T07:01:48.719Z,58.50
2022-08-23T07:07:11.129Z,55.64
2022-08-23T07:12:13.476Z,56.25
2022-08-23T07:17:17.564Z,52.35
2022-08-23T07:22:19.748Z,53.17
2022-08-23T07:27:21.351Z,48.20
2022-08-23T07:32:33.167Z,47.83
2022-08-23T07:37:45.085Z,49.61
2022-08-23T07:42:47.774Z,49.23
2022-08-23T07:47:50.649Z,49.70
2022-08-23T07:52:53.246Z,48.60
2022-08-23T07:57:55.073Z,46.97
2022-08-23T08:03:12.495Z,44.80
2022-08-23T08:08:37.137Z,48.79
2022-08-23T08:13:41.082Z,46.00
2022-08-23T08:18:44.228Z,42.43
2022-08-23T08:24:07.621Z,41.72
2022-08-23T08:29:18.142Z,42.63
2022-08-23T08:34:20.678Z,41.56
2022-08-23T08:39:26.258Z,41.04
2022-08-23T08:44:37.179Z,41.10
2022-08-23T08:49:48.742Z,39.17
2022-08-23T08:55:12.357Z,39.11
2022-08-23T09:00:26.196Z,39.32
2022-08-23T09:05:33.280Z,38.85
2022-08-23T09:10:45.865Z,36.88
2022-08-23T09:16:03.170Z,35.74
2022-08-23T09:21:08.138Z,39.77
2022-08-23T09:26:36.442Z,39.28
2022-08-23T09:31:38.166Z,36.17
2022-08-23T09:36:39.986Z,38.14
2022-08-23T09:41:41.866Z,36.76
2022-08-23T09:46:45.035Z,35.81
2022-08-23T09:51:54.162Z,36.53
2022-08-23T09:57:09.102Z,37.07
2022-08-23T10:02:30.098Z,33.60
2022-08-23T10:07:43.854Z,32.78
2022-08-23T10:12:50.662Z,34.52
2022-08-23T10:18:34.037Z,32.74
2022-08-23T10:24:05.617Z,31.48
2022-08-23T10:29:35.731Z,31.22
2022-08-23T10:35:16.012Z,28.76
2022-08-23T10:40:25.621Z,26.84
2022-08-23T10:45:33.091Z,27.32
2022-08-23T10:51:01.842Z,29.84
2022-08-23T10:56:04.787Z,28.68
2022-08-23T11:01:15.851Z,29.57
2022-08-23T11:06:27.562Z,27.71
2022-08-23T11:11:58.861Z,27.21
2022-08-23T11:17:25.269Z,27.71
2022-08-23T11:22:31.229Z,28.25
2022-08-23T11:27:43.301Z,27.83
2022-08-23T11:32:49.759Z,29.39
2022-08-23T11:37:56.470Z,28.50
2022-08-23T11:43:07.409Z,25.78
2022-08-23T11:48:36.179Z,26.31
2022-08-23T11:53:40.656Z,28.91
2022-08-23T11:59:14.477Z,27.97
2022-08-23T12:04:47.901Z,29.27
2022-08-23T12:09:52.085Z,26.57
2022-08-23T12:14:57.553Z,28.62
2022-08-23T12:19:59.109Z,26.57
2022-08-23T12:25:06.013Z,24.16
2022-08-23T12:30:29.033Z,27.03
2022-08-23T12:35:49.307Z,28.95
2022-08-23T12:40:54.446Z,26.55
2022-08-23T12:45:58.103Z,26.25
2022-08-23T12:51:01.151Z,25.71
2022-08-23T12:56:32.009Z,26.01
2022-08-23T13:01:37.539Z,25.61
2022-08-23T13:07:02.744Z,24.39
2022-08-23T13:12:07.329Z,23.95
2022-08-23T13:17:27.281Z,25.47
2022-08-23T13:22:31.040Z,25.39
2022-08-23T13:27:44.915Z,26.08
2022-08-23T13:33:07.858Z,27.60
2022-08-23T13:38:20.521Z,28.26
2022-08-23T13:43:49.760Z,27.58
2022-08-23T13:49:00.936Z,27.92
2022-08-23T13:54:06.135Z,25.92
2022-08-23T13:59:31.338Z,26.81
2022-08-23T14:04:34.585Z,27.94
2022-08-23T14:09:37.804Z,25.07
2022-08-23T14:14:40.660Z,23.65
2022-08-23T14:25:05.949Z,26.12
2022-08-23T14:30:10.588Z,25.42
2022-08-23T14:35:12.218Z,24.30
2022-08-23T14:40:14.872Z,24.21
2022-08-23T14:45:18.185Z,25.98
2022-08-23T14:50:19.864Z,25.00
2022-08-23T14:55:24.838Z,24.13
2022-08-23T15:00:26.787Z,28.41
2022-08-23T15:05:29.149Z,28.92
2022-08-23T15:15:53.468Z,26.93
2022-08-23T15:20:55.123Z,25.19
2022-08-23T15:25:56.828Z,24.25
2022-08-23T15:30:58.510Z,25.40
2022-08-23T15:36:00.593Z,24.38
2022-08-23T15:41:03.491Z,25.59
2022-08-23T15:46:07.441Z,27.19
2022-08-23T15:51:10.289Z,28.26
2022-08-23T15:56:18.552Z,26.73
2022-08-23T16:01:23.990Z,26.46
2022-08-23T16:06:27.396Z,26.84
2022-08-23T16:11:28.981Z,27.01
2022-08-23T16:16:36.604Z,26.00
2022-08-23T16:21:39.044Z,26.63
2022-08-23T16:26:45.303Z,27.31
2022-08-23T16:31:47.677Z,28.13
2022-08-23T16:36:55.685Z,27.92
2022-08-23T16:41:57.314Z,29.26
2022-08-23T16:46:59.677Z,28.38
2022-08-23T16:52:02.183Z,30.56
2022-08-23T16:57:04.288Z,30.60
2022-08-23T17:02:10.930Z,30.59
2022-08-23T17:07:12.829Z,31.09
2022-08-23T17:12:15.217Z,31.71
2022-08-23T17:17:17.063Z,32.90
2022-08-23T17:22:18.970Z,34.15
2022-08-23T17:27:20.579Z,35.43
2022-08-23T17:32:22.573Z,36.54
2022-08-23T17:37:24.166Z,37.63
2022-08-23T17:42:26.031Z,38.30
2022-08-23T17:47:27.568Z,38.86
2022-08-23T17:52:29.961Z,40.04
2022-08-23T17:57:32.391Z,39.97
2022-08-23T18:02:34.175Z,40.67
2022-08-23T18:07:36.216Z,41.97
2022-08-23T18:12:40.933Z,42.72
2022-08-23T18:17:42.770Z,42.97
2022-08-23T18:22:44.489Z,43.55
2022-08-23T18:27:46.203Z,44.51
2022-08-23T18:32:47.797Z,45.30
2022-08-23T18:37:51.846Z,45.91
2022-08-23T18:42:54.319Z,46.53
2022-08-23T18:47:55.928Z,47.23
2022-08-23T18:52:57.588Z,47.28
2022-08-23T18:57:59.267Z,48.39
2022-08-23T19:03:03.252Z,50.10
2022-08-23T19:08:05.364Z,50.95
2022-08-23T19:13:07.873Z,50.95
2022-08-23T19:18:12.492Z,51.42
2022-08-23T19:23:14.130Z,51.21
2022-08-23T19:28:16.460Z,51.64
2022-08-23T19:33:19.245Z,52.04
2022-08-23T19:38:20.813Z,53.47
2022-08-23T19:43:22.961Z,53.94
2022-08-23T19:48:24.632Z,54.84
2022-08-23T19:53:26.291Z,55.03
2022-08-23T19:58:27.962Z,56.08
2022-08-23T20:03:29.525Z,56.10
2022-08-23T20:08:31.085Z,58.28
2022-08-23T20:13:32.657Z,58.19
2022-08-23T20:18:34.283Z,59.16
2022-08-23T20:23:36.041Z,60.29
2022-08-23T20:28:37.631Z,61.20
2022-08-23T20:33:41.375Z,61.53
2022-08-23T20:38:47.072Z,63.31
2022-08-23T20:43:48.712Z,64.22
2022-08-23T20:48:51.614Z,65.70
2022-08-23T20:53:53.707Z,64.42
2022-08-23T20:58:57.561Z,65.97
2022-08-23T21:04:00.021Z,66.61
2022-08-23T21:09:01.606Z,67.21
2022-08-23T21:14:04.636Z,67.01
2022-08-23T21:19:06.617Z,68.57
2022-08-23T21:24:10.095Z,69.40
2022-08-23T21:29:11.747Z,69.25
2022-08-23T21:34:13.336Z,70.20
2022-08-23T21:39:14.929Z,71.47
2022-08-23T21:44:19.715Z,71.46
2022-08-23T21:49:21.405Z,72.32
2022-08-23T21:54:23.172Z,73.40
2022-08-23T21:59:24.858Z,74.79
2022-08-23T22:04:26.539Z,74.57
2022-08-23T22:09:31.576Z,73.23
2022-08-23T22:14:33.870Z,74.49
2022-08-23T22:19:35.596Z,74.96
2022-08-23T22:24:37.813Z,76.21
2022-08-23T22:29:39.868Z,77.05
2022-08-23T22:34:44.352Z,76.99
2022-08-23T22:39:46.209Z,77.15
2022-08-23T22:44:47.873Z,77.07
2022-08-23T22:49:49.467Z,78.32
2022-08-23T22:54:51.107Z,78.48
2022-08-23T22:59:52.777Z,79.21
2022-08-23T23:04:56.707Z,79.07
2022-08-23T23:09:58.361Z,80.30
2022-08-23T23:15:00.032Z,81.45
2022-08-23T23:20:02.253Z,82.37
2022-08-23T23:25:04.304Z,83.41
2022-08-23T23:30:06.469Z,86.86
2022-08-23T23:35:09.289Z,88.68
2022-08-23T23:40:12.114Z,89.21
2022-08-23T23:45:15.407Z,91.57
2022-08-23T23:50:17.951Z,90.93
2022-08-23T23:55:21.540Z,89.70
